Cabramurra, Australia
Current Conditions -  °F | °C
As of 10:30 PM on Monday 20 Oct 2014 (Local Time) from YCOM Reporting Station
Overcast Overcast  
Wind Chill: 38°   Ceiling: 1100
Heat Index: 45°   Visibility: 6mi
Dew Point: 43°   Wind: 13mph
Humidity: 93%   Direction: 50°NE
Pressure: 30.48"   Gusts: NA
Location:  35.93°S, 148.38°E
Report Text: YCOM 201130Z AUTO 05011KT 9999 // BKN011 OVC026 07/06 Q1032
Loading
Personal Weather Stations






























Interactive Weather Map
Tropical Storm Tracking
New forecast layout! Learn more

10-Day Weather Forecast

Advertisements
Track Severe Weather on mobile